GMMC/CAS METAR and TAF weather

Enter ICAO airport designator
Station Type Date Time Source
GMMC METAR 2019/06/26 18:00 UTC NOAA

GMMC 261800Z 02014KT 9999 SCT016 23/18 Q1017


Station Type Date Time Source
GMMC Decoded METAR 2019/06/26 18:00 UTC NOAA

Casablanca, Morocco (GMMC) 33-34N 007-40W 62M
Jun 26, 2019 - 02:00 PM EDT / 2019.06.26 1800 UTC
Wind: from the NNE (020 degrees) at 16 MPH (14 KT):0
Visibility: greater than 7 mile(s):0
Sky conditions: partly cloudy
Temperature: 73 F (23 C)
Dew Point: 64 F (18 C)
Relative Humidity: 73%
Pressure (altimeter): 30.03 in. Hg (1017 hPa)
ob: GMMC 261800Z 02014KT 9999 SCT016 23/18 Q1017
cycle: 18

Station Type Date Time Source
GMMC TAF 2016/05/22 17:00 UTC NOAA

FTMC31 GMMC 221700 RRA TAF LPPT 221700Z 2218/2324 34013KT CAVOK
BECMG 2221/2224 34007KT
BECMG 2310/2312 VRB03KT

Example: see airport list